Observation data for Pampa on 08/12/2019      Previous  Date       Current Mesonet Observations  Soil Data  Daily Summary Page  Observations in Plain Language
KPMS 120500Z 28009G17KT 25/16 A3003 RMK A01 T02510156  RH  058%=      5-min Rain = 0
KPMS 120505Z 29009G15KT 25/16 A3003 RMK A01 T02490155  RH  059%=      5-min Rain = 0
KPMS 120510Z 29010KT 25/16 A3003 RMK A01 T02480155  RH  059%=      5-min Rain = 0
KPMS 120515Z 28007G13KT 25/16 A3002 RMK A01 T02460155  RH  060%=      5-min Rain = 0
KPMS 120520Z 28008KT 25/15 A3002 RMK A01 T02460154  RH  059%=      5-min Rain = 0
KPMS 120525Z 28007KT 24/16 A3002 RMK A01 T02440155  RH  060%=      5-min Rain = 0
KPMS 120530Z 28006KT 24/16 A3002 RMK A01 T02430157  RH  062%=      5-min Rain = 0
KPMS 120535Z 28006KT 24/16 A3001 RMK A01 T02410156  RH  061%=      5-min Rain = 0
KPMS 120540Z 28006KT 24/16 A3001 RMK A01 T02410155  RH  061%=      5-min Rain = 0
KPMS 120545Z 29004KT 24/15 A3001 RMK A01 T02390154  RH  061%=      5-min Rain = 0
KPMS 120550Z 28004KT 24/15 A30 RMK A01 T02380154  RH  062%=      5-min Rain = 0
KPMS 120555Z 28004KT 24/15 A30 RMK A01 T02360153  RH  062%=      5-min Rain = 0
KPMS 120600Z 27004KT 24/16 A30 RMK A01 T02350155  RH  064%=      5-min Rain = 0
KPMS 120605Z 27003KT 24/16 A30 RMK A01 T02350155  RH  064%=      5-min Rain = 0
KPMS 120610Z 28003KT 23/16 A30 RMK A01 T02340155  RH  064%=      5-min Rain = 0
KPMS 120615Z 26002KT 23/16 A30 RMK A01 T02330156  RH  065%=      5-min Rain = 0
KPMS 120620Z 24001KT 23/15 A2999 RMK A01 T02330154  RH  064%=      5-min Rain = 0
KPMS 120625Z 23001KT 23/15 A2999 RMK A01 T02320153  RH  064%=      5-min Rain = 0
KPMS 120630Z 24002KT 23/15 A2999 RMK A01 T02330152  RH  063%=      5-min Rain = 0
KPMS 120635Z 26002KT 23/15 A2999 RMK A01 T02340153  RH  063%=      5-min Rain = 0
KPMS 120640Z 23003KT 23/15 A2998 RMK A01 T02340153  RH  063%=      5-min Rain = 0
KPMS 120645Z 24003KT 24/15 A2998 RMK A01 T02350153  RH  063%=      5-min Rain = 0
KPMS 120650Z 21003KT 24/15 A2998 RMK A01 T02350154  RH  063%=      5-min Rain = 0
KPMS 120655Z 21004KT 23/16 A2998 RMK A01 T02300155  RH  066%=      5-min Rain = 0
KPMS 120700Z 21004KT 23/16 A2998 RMK A01 T02270155  RH  067%=      5-min Rain = 0
KPMS 120705Z 21004KT 23/15 A2997 RMK A01 T02280154  RH  066%=      5-min Rain = 0
KPMS 120710Z 20004KT 23/16 A2997 RMK A01 T02250155  RH  067%=      5-min Rain = 0
KPMS 120715Z 21004KT 22/16 A2997 RMK A01 T02240156  RH  068%=      5-min Rain = 0
KPMS 120720Z 22004KT 22/16 A2997 RMK A01 T02220157  RH  069%=      5-min Rain = 0
KPMS 120725Z 23006KT 22/16 A2997 RMK A01 T02210155  RH  069%=      5-min Rain = 0
KPMS 120730Z 22006KT 22/16 A2997 RMK A01 T02210155  RH  069%=      5-min Rain = 0
KPMS 120735Z 22005KT 22/16 A2997 RMK A01 T02230155  RH  068%=      5-min Rain = 0
KPMS 120740Z 21005KT 22/16 A2997 RMK A01 T02230156  RH  069%=      5-min Rain = 0
KPMS 120745Z 22005KT 22/16 A2997 RMK A01 T02190156  RH  070%=      5-min Rain = 0
KPMS 120750Z 21005KT 22/16 A2997 RMK A01 T02180156  RH  071%=      5-min Rain = 0
KPMS 120755Z 20004KT 22/16 A2997 RMK A01 T02160156  RH  072%=      5-min Rain = 0
KPMS 120800Z 18004KT 21/15 A2997 RMK A01 T02120154  RH  073%=      5-min Rain = 0
KPMS 120805Z 18005KT 20/16 A2997 RMK A01 T02030155  RH  077%=      5-min Rain = 0
KPMS 120810Z 20003KT 20/16 A2998 RMK A01 T02000155  RH  079%=      5-min Rain = 0
KPMS 120815Z 23002KT 21/15 A2998 RMK A01 T02050154  RH  076%=      5-min Rain = 0
KPMS 120820Z 26002KT 21/15 A2998 RMK A01 T02070154  RH  075%=      5-min Rain = 0
KPMS 120825Z 24003KT 21/15 A2998 RMK A01 T02060153  RH  075%=      5-min Rain = 0
KPMS 120830Z 26004KT 21/15 A2999 RMK A01 T02090152  RH  073%=      5-min Rain = 0
KPMS 120835Z 28005KT 22/15 A2999 RMK A01 T02170152  RH  069%=      5-min Rain = 0
KPMS 120840Z 27005KT 23/15 A2999 RMK A01 T02330151  RH  063%=      5-min Rain = 0
KPMS 120845Z 26004KT 24/15 A2998 RMK A01 T02350150  RH  061%=      5-min Rain = 0
KPMS 120850Z 29003KT 23/15 A2998 RMK A01 T02320147  RH  062%=      5-min Rain = 0
KPMS 120855Z 28003KT 22/15 A2998 RMK A01 T02210146  RH  065%=      5-min Rain = 0
KPMS 120900Z 24002KT 22/15 A2998 RMK A01 T02220147  RH  066%=      5-min Rain = 0
KPMS 120905Z 28004KT 22/15 A2998 RMK A01 T02230148  RH  065%=      5-min Rain = 0
KPMS 120910Z 28004KT 22/15 A2998 RMK A01 T02210147  RH  066%=      5-min Rain = 0
KPMS 120915Z 26003KT 22/15 A2998 RMK A01 T02230146  RH  065%=      5-min Rain = 0
KPMS 120920Z 25004KT 23/15 A2998 RMK A01 T02270145  RH  062%=      5-min Rain = 0
KPMS 120925Z 26003KT 23/14 A2997 RMK A01 T02280144  RH  062%=      5-min Rain = 0
KPMS 120930Z 29002KT 22/14 A2997 RMK A01 T02230144  RH  064%=      5-min Rain = 0
KPMS 120935Z 27004KT 22/15 A2997 RMK A01 T02180145  RH  066%=      5-min Rain = 0
KPMS 120940Z 27003KT 22/15 A2997 RMK A01 T02210149  RH  067%=      5-min Rain = 0
KPMS 120945Z 27003KT 22/15 A2997 RMK A01 T02220148  RH  066%=      5-min Rain = 0
KPMS 120950Z 24003KT 22/15 A2997 RMK A01 T02220149  RH  066%=      5-min Rain = 0
KPMS 120955Z 23004KT 22/15 A2997 RMK A01 T02240146  RH  064%=      5-min Rain = 0
KPMS 121000Z 23004KT 23/15 A2997 RMK A01 T02250146  RH  064%=      5-min Rain = 0
KPMS 121005Z 24004KT 22/15 A2997 RMK A01 T02240146  RH  064%=      5-min Rain = 0
KPMS 121010Z 24004KT 22/15 A2996 RMK A01 T02230146  RH  064%=      5-min Rain = 0
KPMS 121015Z 23004KT 22/15 A2996 RMK A01 T02240147  RH  064%=      5-min Rain = 0
KPMS 121020Z 22003KT 22/15 A2996 RMK A01 T02210147  RH  066%=      5-min Rain = 0
KPMS 121025Z 21003KT 22/15 A2997 RMK A01 T02180147  RH  067%=      5-min Rain = 0
KPMS 121030Z 23003KT 22/15 A2997 RMK A01 T02160148  RH  068%=      5-min Rain = 0
KPMS 121035Z 22003KT 21/15 A2997 RMK A01 T02140148  RH  069%=      5-min Rain = 0
KPMS 121040Z 23003KT 21/15 A2997 RMK A01 T02140149  RH  069%=      5-min Rain = 0
KPMS 121045Z 26003KT 21/15 A2997 RMK A01 T02130147  RH  069%=      5-min Rain = 0
KPMS 121050Z 25003KT 21/15 A2998 RMK A01 T02070146  RH  071%=      5-min Rain = 0
KPMS 121055Z 24004KT 21/15 A2998 RMK A01 T02110148  RH  070%=      5-min Rain = 0
KPMS 121100Z 24004KT 21/15 A2998 RMK A01 T02140147  RH  068%=      5-min Rain = 0
KPMS 121105Z 24004KT 22/15 A2998 RMK A01 T02160146  RH  067%=      5-min Rain = 0
KPMS 121110Z 23004KT 22/15 A2998 RMK A01 T02160147  RH  067%=      5-min Rain = 0
KPMS 121115Z 22005KT 22/15 A2998 RMK A01 T02170145  RH  066%=      5-min Rain = 0
KPMS 121120Z 22004KT 21/15 A2998 RMK A01 T02120147  RH  069%=      5-min Rain = 0
KPMS 121125Z 21005KT 21/15 A2998 RMK A01 T02110149  RH  070%=      5-min Rain = 0
KPMS 121130Z 21006KT 21/15 A2998 RMK A01 T02110150  RH  071%=      5-min Rain = 0
KPMS 121135Z 21005KT 21/15 A2998 RMK A01 T02110150  RH  071%=      5-min Rain = 0
KPMS 121140Z 21004KT 21/15 A2998 RMK A01 T02100149  RH  072%=      5-min Rain = 0
KPMS 121145Z 20004KT 21/15 A2998 RMK A01 T02110148  RH  070%=      5-min Rain = 0
KPMS 121150Z 21004KT 21/15 A2998 RMK A01 T02110148  RH  071%=      5-min Rain = 0
KPMS 121155Z 22004KT 21/15 A2998 RMK A01 T02100148  RH  071%=      5-min Rain = 0
KPMS 121200Z 23003KT 21/15 A2999 RMK A01 T02100148  RH  071%=      5-min Rain = 0
KPMS 121205Z 23002KT 21/15 A2999 RMK A01 T02080148  RH  072%=      5-min Rain = 0
KPMS 121210Z 23002KT 21/15 A2999 RMK A01 T02060149  RH  073%=      5-min Rain = 0
KPMS 121215Z 24003KT 21/15 A2999 RMK A01 T02060149  RH  073%=      5-min Rain = 0
KPMS 121220Z 24003KT 21/15 A2999 RMK A01 T02060149  RH  073%=      5-min Rain = 0
KPMS 121225Z 24002KT 21/15 A2999 RMK A01 T02070149  RH  073%=      5-min Rain = 0
KPMS 121230Z 23002KT 21/15 A2999 RMK A01 T02080150  RH  073%=      5-min Rain = 0
KPMS 121235Z 22003KT 21/15 A2999 RMK A01 T02110151  RH  072%=      5-min Rain = 0
KPMS 121240Z 21002KT 22/15 A2999 RMK A01 T02150153  RH  071%=      5-min Rain = 0
KPMS 121245Z 19003KT 22/15 A2999 RMK A01 T02190152  RH  068%=      5-min Rain = 0
KPMS 121250Z 19003KT 23/15 A2999 RMK A01 T02250154  RH  067%=      5-min Rain = 0
KPMS 121255Z 19002KT 23/15 A2999 RMK A01 T02280154  RH  066%=      5-min Rain = 0
KPMS 121300Z 18002KT 23/15 A2999 RMK A01 T02320153  RH  064%=      5-min Rain = 0
KPMS 121305Z 17003KT 24/16 A2999 RMK A01 T02350155  RH  064%=      5-min Rain = 0
KPMS 121310Z 19003KT 24/15 A2999 RMK A01 T02390154  RH  062%=      5-min Rain = 0
KPMS 121315Z 22002KT 25/15 A30 RMK A01 T02450154  RH  060%=      5-min Rain = 0
KPMS 121320Z 21002KT 25/16 A30 RMK A01 T02460155  RH  059%=      5-min Rain = 0
KPMS 121325Z 18002KT 25/15 A30 RMK A01 T02490154  RH  058%=      5-min Rain = 0
KPMS 121330Z 17003KT 26/15 A30 RMK A01 T02570150  RH  054%=      5-min Rain = 0
KPMS 121335Z 17004KT 26/15 A2999 RMK A01 T02640149  RH  051%=      5-min Rain = 0
KPMS 121340Z 17005KT 27/15 A2999 RMK A01 T02660149  RH  051%=      5-min Rain = 0
KPMS 121345Z 18005KT 27/15 A2999 RMK A01 T02680151  RH  051%=      5-min Rain = 0
KPMS 121350Z 18004KT 27/15 A30 RMK A01 T02690154  RH  052%=      5-min Rain = 0
KPMS 121355Z 18005KT 27/16 A30 RMK A01 T02710156  RH  052%=      5-min Rain = 0
KPMS 121400Z 18006KT 28/16 A30 RMK A01 T02750157  RH  051%=      5-min Rain = 0
KPMS 121405Z 18006KT 28/16 A30 RMK A01 T02760157  RH  051%=      5-min Rain = 0
KPMS 121410Z 18007KT 28/16 A30 RMK A01 T02790156  RH  049%=      5-min Rain = 0
KPMS 121415Z 19008KT 28/15 A30 RMK A01 T02790154  RH  049%=      5-min Rain = 0
KPMS 121420Z 20008KT 28/15 A2999 RMK A01 T02810153  RH  048%=      5-min Rain = 0
KPMS 121425Z 20008KT 28/15 A2999 RMK A01 T02820154  RH  048%=      5-min Rain = 0
KPMS 121430Z 20009KT 28/15 A2999 RMK A01 T02830153  RH  047%=      5-min Rain = 0
KPMS 121435Z 20009KT 28/16 A2999 RMK A01 T02840155  RH  048%=      5-min Rain = 0
KPMS 121440Z 19009KT 29/16 A2999 RMK A01 T02850157  RH  048%=      5-min Rain = 0
KPMS 121445Z 19009KT 29/16 A2999 RMK A01 T02890156  RH  046%=      5-min Rain = 0
KPMS 121450Z 20009KT 30/16 A2999 RMK A01 T02950156  RH  045%=      5-min Rain = 0
KPMS 121455Z 21010G15KT 30/15 A2999 RMK A01 T03000150  RH  042%=      5-min Rain = 0
KPMS 121500Z 21012G19KT 30/15 A2999 RMK A01 T03030149  RH  041%=      5-min Rain = 0
KPMS 121505Z 22011KT 30/15 A2999 RMK A01 T03040150  RH  041%=      5-min Rain = 0
KPMS 121510Z 22012KT 31/15 A2999 RMK A01 T03060148  RH  040%=      5-min Rain = 0
KPMS 121515Z 22010KT 31/15 A2999 RMK A01 T03100149  RH  039%=      5-min Rain = 0
KPMS 121520Z 22012G19KT 31/15 A2999 RMK A01 T03100147  RH  039%=      5-min Rain = 0
KPMS 121525Z 22012G21KT 31/15 A2999 RMK A01 T03140146  RH  038%=      5-min Rain = 0
KPMS 121530Z 23014G19KT 31/14 A2999 RMK A01 T03110143  RH  038%=      5-min Rain = 0
KPMS 121535Z 23012G18KT 31/14 A2999 RMK A01 T03130143  RH  037%=      5-min Rain = 0
KPMS 121540Z 23012KT 31/14 A2999 RMK A01 T03140144  RH  037%=      5-min Rain = 0
KPMS 121545Z 22012G17KT 31/14 A2999 RMK A01 T03140143  RH  037%=      5-min Rain = 0
KPMS 121550Z 24013KT 32/14 A2999 RMK A01 T03160141  RH  036%=      5-min Rain = 0
KPMS 121555Z 23012KT 32/14 A2999 RMK A01 T03180143  RH  036%=      5-min Rain = 0
KPMS 121600Z 23012G18KT 32/14 A2999 RMK A01 T03160143  RH  037%=      5-min Rain = 0
KPMS 121605Z 24009G15KT 32/14 A2999 RMK A01 T03230144  RH  035%=      5-min Rain = 0
KPMS 121610Z 22009G15KT 33/15 A2999 RMK A01 T03270147  RH  035%=      5-min Rain = 0
KPMS 121615Z 23009G14KT 33/15 A2999 RMK A01 T03280146  RH  035%=      5-min Rain = 0
KPMS 121620Z 23009KT 33/15 A2999 RMK A01 T03280145  RH  035%=      5-min Rain = 0
KPMS 121625Z 22009G15KT 33/15 A2999 RMK A01 T03310146  RH  034%=      5-min Rain = 0
KPMS 121630Z 24008G13KT 33/14 A2999 RMK A01 T03340140  RH  032%=      5-min Rain = 0
KPMS 121635Z 22008KT 33/14 A2999 RMK A01 T03330142  RH  033%=      5-min Rain = 0
KPMS 121640Z 21008KT 33/14 A2999 RMK A01 T03320143  RH  033%=      5-min Rain = 0
KPMS 121645Z 25008KT 34/14 A2999 RMK A01 T03360137  RH  031%=      5-min Rain = 0
KPMS 121650Z 25007KT 34/14 A2999 RMK A01 T03380136  RH  031%=      5-min Rain = 0
KPMS 121655Z 22009G14KT 34/14 A2999 RMK A01 T03400139  RH  031%=      5-min Rain = 0
KPMS 121700Z 23008KT 34/14 A2999 RMK A01 T03360138  RH  032%=      5-min Rain = 0
KPMS 121705Z 22008G14KT 34/14 A2999 RMK A01 T03390144  RH  032%=      5-min Rain = 0
KPMS 121710Z 23009KT 34/14 A2999 RMK A01 T03430137  RH  030%=      5-min Rain = 0
KPMS 121715Z 23008KT 34/14 A2999 RMK A01 T03430139  RH  031%=      5-min Rain = 0
KPMS 121720Z 23007G12KT 35/14 A2999 RMK A01 T03450139  RH  030%=      5-min Rain = 0
KPMS 121725Z 22008G13KT 34/14 A2999 RMK A01 T03430140  RH  031%=      5-min Rain = 0
KPMS 121730Z 24009G15KT 34/14 A2999 RMK A01 T03430142  RH  031%=      5-min Rain = 0
KPMS 121735Z 24007G12KT 34/14 A2999 RMK A01 T03420143  RH  032%=      5-min Rain = 0
KPMS 121740Z 26008G13KT 35/14 A2999 RMK A01 T03490139  RH  030%=      5-min Rain = 0
KPMS 121745Z 27005KT 35/14 A2999 RMK A01 T03470138  RH  030%=      5-min Rain = 0
KPMS 121750Z 23007G12KT 35/15 A2998 RMK A01 T03520145  RH  030%=      5-min Rain = 0
KPMS 121755Z 19007G13KT 35/14 A2998 RMK A01 T03470144  RH  031%=      5-min Rain = 0
KPMS 121800Z 21009G14KT 35/15 A2998 RMK A01 T03520149  RH  031%=      5-min Rain = 0
KPMS 121805Z 19007KT 35/14 A2998 RMK A01 T03490144  RH  030%=      5-min Rain = 0
KPMS 121810Z 21009G15KT 35/15 A2998 RMK A01 T03470146  RH  031%=      5-min Rain = 0
KPMS 121815Z 19010KT 35/15 A2998 RMK A01 T03510147  RH  031%=      5-min Rain = 0
KPMS 121820Z 19008KT 35/15 A2998 RMK A01 T03520147  RH  031%=      5-min Rain = 0
KPMS 121825Z 19008G14KT 35/15 A2997 RMK A01 T03540148  RH  031%=      5-min Rain = 0
KPMS 121830Z 20009G14KT 36/15 A2998 RMK A01 T03550147  RH  030%=      5-min Rain = 0
KPMS 121835Z 21008KT 36/15 A2997 RMK A01 T03550146  RH  030%=      5-min Rain = 0
KPMS 121840Z 19007KT 35/15 A2997 RMK A01 T03540146  RH  030%=      5-min Rain = 0
KPMS 121845Z 20007KT 36/15 A2997 RMK A01 T03580152  RH  031%=      5-min Rain = 0
KPMS 121850Z 18006KT 35/15 A2997 RMK A01 T03520148  RH  031%=      5-min Rain = 0
KPMS 121855Z 21004KT 35/15 A2997 RMK A01 T03490146  RH  031%=      5-min Rain = 0
KPMS 121900Z 16002KT 35/15 A2997 RMK A01 T03520147  RH  031%=      5-min Rain = 0
KPMS 121905Z 19002KT 36/15 A2997 RMK A01 T03600146  RH  029%=      5-min Rain = 0
KPMS 121910Z 21005G10KT 37/15 A2996 RMK A01 T03650149  RH  029%=      5-min Rain = 0
KPMS 121915Z 18006G13KT 36/14 A2996 RMK A01 T03640144  RH  028%=      5-min Rain = 0
KPMS 121920Z 21006G15KT 37/15 A2996 RMK A01 T03660146  RH  028%=      5-min Rain = 0
KPMS 121925Z 20010G15KT 37/15 A2996 RMK A01 T03710145  RH  027%=      5-min Rain = 0
KPMS 121930Z 18009KT 37/14 A2996 RMK A01 T03670142  RH  027%=      5-min Rain = 0
KPMS 121935Z 19008G14KT 37/14 A2996 RMK A01 T03670139  RH  027%=      5-min Rain = 0
KPMS 121940Z 20007KT 37/14 A2995 RMK A01 T03710140  RH  026%=      5-min Rain = 0
KPMS 121945Z 19009G14KT 37/14 A2995 RMK A01 T03670139  RH  027%=      5-min Rain = 0
KPMS 121950Z 18008G13KT 37/14 A2995 RMK A01 T03660136  RH  026%=      5-min Rain = 0
KPMS 121955Z 19007KT 37/14 A2994 RMK A01 T03710140  RH  026%=      5-min Rain = 0
KPMS 122000Z 18007G13KT 37/14 A2994 RMK A01 T03680139  RH  027%=      5-min Rain = 0
KPMS 122005Z 21010G17KT 37/14 A2994 RMK A01 T03690142  RH  027%=      5-min Rain = 0
KPMS 122010Z 21004G9KT 37/14 A2993 RMK A01 T03700138  RH  026%=      5-min Rain = 0
KPMS 122015Z 19008KT 37/14 A2993 RMK A01 T03740139  RH  026%=      5-min Rain = 0
KPMS 122020Z 18008KT 38/14 A2993 RMK A01 T03770141  RH  026%=      5-min Rain = 0
KPMS 122025Z 19010G16KT 37/14 A2992 RMK A01 T03720139  RH  026%=      5-min Rain = 0
KPMS 122030Z 20007KT 37/14 A2993 RMK A01 T03710140  RH  026%=      5-min Rain = 0
KPMS 122035Z 16007G12KT 37/14 A2993 RMK A01 T03660136  RH  026%=      5-min Rain = 0
KPMS 122040Z 17008G13KT 36/14 A2992 RMK A01 T03590137  RH  028%=      5-min Rain = 0
KPMS 122045Z 19007G12KT 35/14 A2992 RMK A01 T03520139  RH  029%=      5-min Rain = 0
KPMS 122050Z 19011G17KT 35/14 A2992 RMK A01 T03510144  RH  030%=      5-min Rain = 0
KPMS 122055Z 18023G36KT 33/15 A2993 RMK A01 T03330149  RH  035%=      5-min Rain = 0
KPMS 122100Z 17024G34KT 29/15 A2993 RMK A01 T02940152  RH  044%=      5-min Rain = 0
KPMS 122105Z 15021G28KT 27/17 A2993 RMK A01 T02740166  RH  054%=      5-min Rain = 0
KPMS 122110Z 15018G23KT 27/16 A2992 RMK A01 T02720164  RH  054%=      5-min Rain = 0
KPMS 122115Z 14013G18KT 28/16 A2993 RMK A01 T02770156  RH  050%=      5-min Rain = 0
KPMS 122120Z 15011G16KT 28/15 A2994 RMK A01 T02820149  RH  046%=      5-min Rain = 0
KPMS 122125Z 14005KT 29/15 A2994 RMK A01 T02850147  RH  045%=      5-min Rain = 0
KPMS 122130Z 33013G22KT 28/16 A2995 RMK A01 T02800155  RH  049%=      5-min Rain = 0
KPMS 122135Z 33017G22KT 27/16 A2995 RMK A01 T02740160  RH  052%=      5-min Rain = 0
KPMS 122140Z 33013G19KT 27/16 A2995 RMK A01 T02660158  RH  054%=      5-min Rain = 0
KPMS 122145Z 32010KT 26/16 A2996 RMK A01 T02570158  RH  057%=      5-min Rain = 0
KPMS 122150Z 28010G15KT 26/16 A2998 RMK A01 T02570161  RH  058%=      5-min Rain = 0
KPMS 122155Z 23014G27KT 24/18 A3001 RMK A01 T02360179  RH  074%=      5-min Rain = 0.13
KPMS 122200Z 24013G20KT 22/18 A3001 RMK A01 T02210183  RH  083%=      5-min Rain = 0.1
KPMS 122205Z 25003KT 22/18 A2999 RMK A01 T02170179  RH  083%=      5-min Rain = 0.04
KPMS 122210Z 07007G14KT 21/18 A2997 RMK A01 T02130184  RH  088%=      5-min Rain = 0.02
KPMS 122215Z 07010KT 22/19 A2995 RMK A01 T02200186  RH  086%=      5-min Rain = 0.01
KPMS 122220Z 08008KT 22/19 A2995 RMK A01 T02220190  RH  087%=      5-min Rain = 0
KPMS 122225Z 09006KT 23/19 A2995 RMK A01 T02290191  RH  084%=      5-min Rain = 0
KPMS 122230Z 13006KT 23/19 A2995 RMK A01 T02340193  RH  082%=      5-min Rain = 0
KPMS 122235Z 13007KT 24/20 A2995 RMK A01 T02360195  RH  082%=      5-min Rain = 0
KPMS 122240Z 14011G17KT 24/19 A2996 RMK A01 T02390191  RH  079%=      5-min Rain = 0
KPMS 122245Z 13014G22KT 24/19 A2996 RMK A01 T02380188  RH  078%=      5-min Rain = 0.05
KPMS 122250Z 12010G15KT 24/19 A2996 RMK A01 T02360191  RH  080%=      5-min Rain = 0
KPMS 122255Z 12009KT 24/19 A2995 RMK A01 T02400187  RH  077%=      5-min Rain = 0.01
KPMS 122300Z 08010KT 25/18 A2995 RMK A01 T02460184  RH  072%=      5-min Rain = 0
KPMS 122305Z 09008KT 24/19 A2995 RMK A01 T02440188  RH  075%=      5-min Rain = 0
KPMS 122310Z 09008KT 25/19 A2995 RMK A01 T02460190  RH  075%=      5-min Rain = 0
KPMS 122315Z 07008KT 25/19 A2995 RMK A01 T02510186  RH  071%=      5-min Rain = 0
KPMS 122320Z 07008KT 25/19 A2995 RMK A01 T02490188  RH  073%=      5-min Rain = 0
KPMS 122325Z 08007KT 25/19 A2996 RMK A01 T02500188  RH  073%=      5-min Rain = 0
KPMS 122330Z 08008KT 25/19 A2995 RMK A01 T02500189  RH  073%=      5-min Rain = 0
KPMS 122335Z 08010KT 25/18 A2995 RMK A01 T02500183  RH  070%=      5-min Rain = 0
KPMS 122340Z 06009KT 25/19 A2995 RMK A01 T02470186  RH  073%=      5-min Rain = 0
KPMS 122345Z 04008KT 25/19 A2994 RMK A01 T02450186  RH  074%=      5-min Rain = 0
KPMS 122350Z 04007KT 25/19 A2994 RMK A01 T02450186  RH  074%=      5-min Rain = 0
KPMS 122355Z 04008KT 24/19 A2994 RMK A01 T02430188  RH  076%=      5-min Rain = 0
KPMS 130000Z 05014KT 24/19 A2994 RMK A01 T02350186  RH  078%=      5-min Rain = 0.05
KPMS 130005Z 07015KT 23/19 A2993 RMK A01 T02310186  RH  080%=      5-min Rain = 0
KPMS 130010Z 08015KT 24/19 A2993 RMK A01 T02360185  RH  077%=      5-min Rain = 0
KPMS 130015Z 08014KT 24/19 A2993 RMK A01 T02370185  RH  076%=      5-min Rain = 0
KPMS 130020Z 08013KT 24/19 A2993 RMK A01 T02370185  RH  077%=      5-min Rain = 0
KPMS 130025Z 08012KT 24/19 A2994 RMK A01 T02380185  RH  076%=      5-min Rain = 0
KPMS 130030Z 08012KT 24/18 A2994 RMK A01 T02400183  RH  074%=      5-min Rain = 0
KPMS 130035Z 09012KT 24/19 A2993 RMK A01 T02370186  RH  077%=      5-min Rain = 0
KPMS 130040Z 09014KT 24/18 A2993 RMK A01 T02390183  RH  075%=      5-min Rain = 0
KPMS 130045Z 09013KT 24/18 A2993 RMK A01 T02400183  RH  074%=      5-min Rain = 0
KPMS 130050Z 08012G17KT 24/18 A2994 RMK A01 T02410180  RH  072%=      5-min Rain = 0
KPMS 130055Z 08013KT 25/18 A2993 RMK A01 T02460176  RH  069%=      5-min Rain = 0
KPMS 130100Z 08011KT 25/18 A2993 RMK A01 T02450178  RH  070%=      5-min Rain = 0
KPMS 130105Z 06007KT 24/18 A2995 RMK A01 T02430180  RH  072%=      5-min Rain = 0
KPMS 130110Z 34006KT 24/18 A2997 RMK A01 T02420182  RH  073%=      5-min Rain = 0
KPMS 130115Z 32007KT 24/18 A2998 RMK A01 T02420184  RH  074%=      5-min Rain = 0
KPMS 130120Z 03008KT 24/18 A2997 RMK A01 T02400182  RH  074%=      5-min Rain = 0.01
KPMS 130125Z 06010G16KT 23/18 A2997 RMK A01 T02340183  RH  077%=      5-min Rain = 0
KPMS 130130Z 07017G23KT 23/18 A2995 RMK A01 T02340181  RH  076%=      5-min Rain = 0
KPMS 130135Z 09015G20KT 23/18 A2995 RMK A01 T02330181  RH  076%=      5-min Rain = 0
KPMS 130140Z 08015KT 23/18 A2995 RMK A01 T02320180  RH  077%=      5-min Rain = 0
KPMS 130145Z 08013KT 23/18 A2995 RMK A01 T02330180  RH  076%=      5-min Rain = 0
KPMS 130150Z 08010KT 23/18 A2996 RMK A01 T02320181  RH  077%=      5-min Rain = 0
KPMS 130155Z 07009KT 23/18 A2996 RMK A01 T02290182  RH  079%=      5-min Rain = 0
KPMS 130200Z 06009KT 23/18 A2996 RMK A01 T02300182  RH  078%=      5-min Rain = 0
KPMS 130205Z 05009KT 23/18 A2997 RMK A01 T02320182  RH  078%=      5-min Rain = 0
KPMS 130210Z 05009KT 23/18 A2998 RMK A01 T02300184  RH  079%=      5-min Rain = 0
KPMS 130215Z 04011KT 23/18 A2999 RMK A01 T02310183  RH  079%=      5-min Rain = 0.01
KPMS 130220Z 02017G26KT 23/18 A30 RMK A01 T02320181  RH  077%=      5-min Rain = 0
KPMS 130225Z 04011KT 24/18 A30 RMK A01 T02360179  RH  074%=      5-min Rain = 0
KPMS 130230Z 04009KT 23/18 A30 RMK A01 T02340181  RH  076%=      5-min Rain = 0
KPMS 130235Z 04012KT 23/18 A30 RMK A01 T02340181  RH  076%=      5-min Rain = 0
KPMS 130240Z 05013KT 23/18 A30 RMK A01 T02340179  RH  075%=      5-min Rain = 0
KPMS 130245Z 06010KT 23/18 A3001 RMK A01 T02330181  RH  077%=      5-min Rain = 0
KPMS 130250Z 05011KT 23/18 A3002 RMK A01 T02320181  RH  077%=      5-min Rain = 0
KPMS 130255Z 02011KT 23/18 A3003 RMK A01 T02270183  RH  080%=      5-min Rain = 0
KPMS 130300Z 02013KT 23/18 A3002 RMK A01 T02260182  RH  081%=      5-min Rain = 0
KPMS 130305Z 03013KT 22/18 A3002 RMK A01 T02230183  RH  082%=      5-min Rain = 0
KPMS 130310Z 04013KT 22/18 A3002 RMK A01 T02240183  RH  082%=      5-min Rain = 0
KPMS 130315Z 03013KT 22/18 A3001 RMK A01 T02240183  RH  082%=      5-min Rain = 0
KPMS 130320Z 03012KT 22/18 A3002 RMK A01 T02240183  RH  082%=      5-min Rain = 0
KPMS 130325Z 04012KT 22/18 A3002 RMK A01 T02230184  RH  083%=      5-min Rain = 0
KPMS 130330Z 03011KT 22/18 A3003 RMK A01 T02240183  RH  082%=      5-min Rain = 0
KPMS 130335Z 04009G14KT 23/18 A3004 RMK A01 T02260182  RH  081%=      5-min Rain = 0
KPMS 130340Z 03007KT 23/18 A3005 RMK A01 T02270182  RH  080%=      5-min Rain = 0
KPMS 130345Z 24004KT 23/18 A3007 RMK A01 T02290183  RH  080%=      5-min Rain = 0
KPMS 130350Z 24008KT 23/19 A3009 RMK A01 T02260186  RH  083%=      5-min Rain = 0.02
KPMS 130355Z 32004KT 22/19 A301 RMK A01 T02210187  RH  085%=      5-min Rain = 0.16
KPMS 130400Z 03010KT 21/19 A3008 RMK A01 T02110186  RH  091%=      5-min Rain = 0.11
KPMS 130405Z 04013KT 21/19 A3008 RMK A01 T02060186  RH  093%=      5-min Rain = 0.01
KPMS 130410Z 04011KT 20/19 A3008 RMK A01 T02030185  RH  094%=      5-min Rain = 0.01
KPMS 130415Z 06010KT 21/18 A3009 RMK A01 T02070184  RH  092%=      5-min Rain = 0.01
KPMS 130420Z 08012KT 21/19 A3008 RMK A01 T02080185  RH  091%=      5-min Rain = 0
KPMS 130425Z 10010KT 21/19 A3009 RMK A01 T02060185  RH  093%=      5-min Rain = 0
KPMS 130430Z 12010KT 21/19 A3009 RMK A01 T02050188  RH  095%=      5-min Rain = 0.02
KPMS 130435Z 14010KT 21/19 A3008 RMK A01 T02050189  RH  095%=      5-min Rain = 0
KPMS 130440Z 12014KT 21/19 A3006 RMK A01 T02060189  RH  095%=      5-min Rain = 0.03
KPMS 130445Z 12014G19KT 21/19 A3005 RMK A01 T02070186  RH  093%=      5-min Rain = 0.01
KPMS 130450Z 13014KT 21/19 A3004 RMK A01 T02070185  RH  092%=      5-min Rain = 0
KPMS 130455Z 13017KT 21/19 A3003 RMK A01 T02070185  RH  092%=      5-min Rain = 0

Page generated in 0.0095 seconds.